Time,TemperatureF,DewpointF,PressureIn,WindDirection,WindDirectionDegrees,WindSpeedMPH,WindSpeedGustMPH,Humidity,HourlyPrecipIn,Conditions,Clouds,dailyrainin,SoftwareType,DateUTC
2013-01-03 00:00:00,23.2,19.0,30.25,NNW,338,0.0,0.0,82,0.00,,,0.03,weatherlink.com 1.10,2013-01-03 05:00:00,
2013-01-03 00:30:00,22.6,19.0,30.25,NNW,338,0.0,0.0,84,0.00,,,0.03,weatherlink.com 1.10,2013-01-03 05:30:00,
2013-01-03 00:45:00,22.5,18.0,30.25,NNW,338,0.0,0.0,84,0.00,,,0.03,weatherlink.com 1.10,2013-01-03 05:45:00,
2013-01-03 01:00:00,22.4,19.0,30.25,NNW,338,0.0,0.0,85,0.00,,,0.03,weatherlink.com 1.10,2013-01-03 06:00:00,
2013-01-03 01:15:00,22.1,18.0,30.25,NNW,338,0.0,0.0,85,0.00,,,0.03,weatherlink.com 1.10,2013-01-03 06:15:00,
2013-01-03 01:30:00,21.8,18.0,30.25,NNW,338,0.0,0.0,86,0.00,,,0.03,weatherlink.com 1.10,2013-01-03 06:30:00,
2013-01-03 01:45:00,21.5,18.0,30.25,NNW,338,0.0,0.0,86,0.00,,,0.03,weatherlink.com 1.10,2013-01-03 06:45:00,
2013-01-03 02:00:00,21.4,18.0,30.25,NNW,338,0.0,0.0,86,0.00,,,0.03,weatherlink.com 1.10,2013-01-03 07:00:00,
2013-01-03 02:15:00,21.3,18.0,30.26,NNW,338,0.0,0.0,87,0.00,,,0.03,weatherlink.com 1.10,2013-01-03 07:15:00,
2013-01-03 02:30:00,21.3,18.0,30.25,NNW,338,0.0,0.0,88,0.00,,,0.03,weatherlink.com 1.10,2013-01-03 07:30:00,
2013-01-03 02:45:00,21.3,19.0,30.26,NNW,338,0.0,0.0,89,0.00,,,0.03,weatherlink.com 1.10,2013-01-03 07:45:00,
2013-01-03 03:00:00,21.3,19.0,30.25,NNW,338,0.0,0.0,89,0.00,,,0.03,weatherlink.com 1.10,2013-01-03 08:00:00,
2013-01-03 03:15:00,21.2,18.0,30.25,NNW,338,0.0,0.0,88,0.00,,,0.03,weatherlink.com 1.10,2013-01-03 08:15:00,
2013-01-03 03:30:00,21.0,18.0,30.24,NNW,338,0.0,0.0,89,0.00,,,0.03,weatherlink.com 1.10,2013-01-03 08:30:00,
2013-01-03 03:45:00,21.1,18.0,30.23,NNW,338,0.0,0.0,89,0.00,,,0.03,weatherlink.com 1.10,2013-01-03 08:45:00,
2013-01-03 04:00:00,20.9,18.0,30.24,NNW,338,0.0,0.0,89,0.00,,,0.03,weatherlink.com 1.10,2013-01-03 09:00:00,
2013-01-03 04:15:00,20.8,18.0,30.24,NNW,338,0.0,0.0,90,0.00,,,0.03,weatherlink.com 1.10,2013-01-03 09:15:00,
2013-01-03 04:30:00,20.6,18.0,30.25,NNW,338,0.0,0.0,91,0.00,,,0.03,weatherlink.com 1.10,2013-01-03 09:30:00,
2013-01-03 04:45:00,20.4,18.0,30.25,NNW,338,0.0,0.0,91,0.00,,,0.03,weatherlink.com 1.10,2013-01-03 09:45:00,
2013-01-03 05:00:00,20.3,18.0,30.25,NNW,338,0.0,0.0,91,0.00,,,0.03,weatherlink.com 1.10,2013-01-03 10:00:00,
2013-01-03 05:15:00,20.1,18.0,30.25,NNW,338,0.0,0.0,92,0.00,,,0.03,weatherlink.com 1.10,2013-01-03 10:15:00,
2013-01-03 05:30:00,19.9,18.0,30.26,NNW,338,0.0,0.0,92,0.00,,,0.03,weatherlink.com 1.10,2013-01-03 10:30:00,
2013-01-03 05:45:00,19.7,18.0,30.25,NNW,338,0.0,0.0,92,0.00,,,0.03,weatherlink.com 1.10,2013-01-03 10:45:00,
2013-01-03 06:00:00,19.5,18.0,30.25,NNW,338,0.0,0.0,92,0.00,,,0.03,weatherlink.com 1.10,2013-01-03 11:00:00,
2013-01-03 06:15:00,19.4,18.0,30.26,NNW,338,0.0,0.0,93,0.00,,,0.03,weatherlink.com 1.10,2013-01-03 11:15:00,
2013-01-03 06:30:00,19.4,18.0,30.26,NNW,338,0.0,0.0,93,0.00,,,0.03,weatherlink.com 1.10,2013-01-03 11:30:00,
2013-01-03 06:45:00,19.3,18.0,30.28,NNW,338,0.0,0.0,93,0.00,,,0.03,weatherlink.com 1.10,2013-01-03 11:45:00,
2013-01-03 07:00:00,19.2,18.0,30.27,NNW,338,0.0,0.0,93,0.00,,,0.03,weatherlink.com 1.10,2013-01-03 12:00:00,
2013-01-03 07:15:00,19.3,18.0,30.27,NNW,338,0.0,0.0,93,0.00,,,0.03,weatherlink.com 1.10,2013-01-03 12:15:00,
2013-01-03 07:30:00,19.6,18.0,30.28,NNW,338,0.0,0.0,92,0.00,,,0.03,weatherlink.com 1.10,2013-01-03 12:30:00,
2013-01-03 07:45:00,19.7,18.0,30.28,NNW,338,0.0,0.0,93,0.00,,,0.03,weatherlink.com 1.10,2013-01-03 12:45:00,
2013-01-03 08:00:00,20.0,18.0,30.27,NNW,338,0.0,1.0,92,0.00,,,0.03,weatherlink.com 1.10,2013-01-03 13:00:00,
2013-01-03 08:15:00,20.5,18.0,30.28,NNW,338,0.0,0.0,91,0.00,,,0.03,weatherlink.com 1.10,2013-01-03 13:15:00,
2013-01-03 08:30:00,20.6,18.0,30.28,NNW,338,0.0,0.0,90,0.00,,,0.03,weatherlink.com 1.10,2013-01-03 13:30:00,
2013-01-03 08:45:00,20.7,18.0,30.28,NNW,338,0.0,0.0,90,0.00,,,0.03,weatherlink.com 1.10,2013-01-03 13:45:00,
2013-01-03 09:00:00,21.0,18.0,30.29,NNW,338,1.0,1.0,89,0.00,,,0.03,weatherlink.com 1.10,2013-01-03 14:00:00,
2013-01-03 09:15:00,22.4,19.0,30.28,SW,226,0.0,2.0,86,0.00,,,0.03,weatherlink.com 1.10,2013-01-03 14:15:00,
2013-01-03 09:30:00,23.5,19.0,30.28,South,175,1.0,3.0,83,0.00,,,0.03,weatherlink.com 1.10,2013-01-03 14:30:00,
2013-01-03 09:45:00,24.6,19.0,30.28,SSW,208,2.0,4.0,80,0.00,,,0.03,weatherlink.com 1.10,2013-01-03 14:45:00,
2013-01-03 10:00:00,25.4,19.0,30.29,SSW,213,3.0,5.0,76,0.00,,,0.03,weatherlink.com 1.10,2013-01-03 15:00:00,
2013-01-03 10:15:00,26.3,19.0,30.29,SSW,192,2.0,4.0,75,0.00,,,0.03,weatherlink.com 1.10,2013-01-03 15:15:00,
2013-01-03 10:30:00,27.4,19.0,30.30,SSW,205,2.0,4.0,72,0.00,,,0.03,weatherlink.com 1.10,2013-01-03 15:30:00,
2013-01-03 10:45:00,28.7,19.0,30.29,SSW,196,2.0,5.0,68,0.00,,,0.03,weatherlink.com 1.10,2013-01-03 15:45:00,
2013-01-03 11:00:00,29.5,19.0,30.29,SSW,209,1.0,5.0,66,0.00,,,0.03,weatherlink.com 1.10,2013-01-03 16:00:00,
2013-01-03 11:15:00,30.7,19.0,30.29,SSW,197,2.0,6.0,61,0.00,,,0.03,weatherlink.com 1.10,2013-01-03 16:15:00,
2013-01-03 11:30:00,31.9,18.0,30.29,West,277,2.0,5.0,57,0.00,,,0.03,weatherlink.com 1.10,2013-01-03 16:30:00,
2013-01-03 11:45:00,32.5,18.0,30.28,SW,217,3.0,7.0,55,0.00,,,0.03,weatherlink.com 1.10,2013-01-03 16:45:00,
2013-01-03 12:00:00,33.5,18.0,30.27,East,86,0.0,5.0,54,0.00,,,0.03,weatherlink.com 1.10,2013-01-03 17:00:00,
2013-01-03 12:15:00,33.9,19.0,30.27,WSW,250,1.0,6.0,54,0.00,,,0.03,weatherlink.com 1.10,2013-01-03 17:15:00,
2013-01-03 12:30:00,34.4,19.0,30.27,SSW,205,1.0,6.0,53,0.00,,,0.00,weatherlink.com 1.10,2013-01-03 17:30:00,
2013-01-03 12:45:00,35.2,19.0,30.26,SSW,211,4.0,7.0,53,0.00,,,0.00,weatherlink.com 1.10,2013-01-03 17:45:00,
2013-01-03 13:00:00,35.9,19.0,30.26,SSE,160,4.0,6.0,51,0.00,,,0.00,weatherlink.com 1.10,2013-01-03 18:00:00,
2013-01-03 13:15:00,36.1,19.0,30.25,SW,234,1.0,7.0,50,0.00,,,0.00,weatherlink.com 1.10,2013-01-03 18:15:00,
2013-01-03 13:31:00,37.6,20.0,30.25,SSW,207,2.0,6.0,50,0.00,,,0.00,weatherlink.com 1.10,2013-01-03 18:31:00,
2013-01-03 13:46:00,38.1,21.0,30.25,South,187,1.0,9.0,50,0.00,,,0.00,weatherlink.com 1.10,2013-01-03 18:46:00,
2013-01-03 14:01:00,38.2,21.0,30.25,SSW,202,3.0,9.0,51,0.00,,,0.00,weatherlink.com 1.10,2013-01-03 19:01:00,
2013-01-03 14:16:00,37.8,22.0,30.25,West,274,1.0,6.0,54,0.00,,,0.00,weatherlink.com 1.10,2013-01-03 19:16:00,
2013-01-03 15:01:00,37.2,23.0,30.26,SSE,164,3.0,10.0,58,0.01,,,0.01,weatherlink.com 1.10,2013-01-03 20:01:00,
2013-01-03 15:16:00,37.7,25.0,30.27,SW,221,1.0,5.0,60,0.01,,,0.01,weatherlink.com 1.10,2013-01-03 20:16:00,
2013-01-03 15:31:00,37.4,24.0,30.27,SE,140,0.0,9.0,60,0.01,,,0.02,weatherlink.com 1.10,2013-01-03 20:31:00,
2013-01-03 15:46:00,36.4,24.0,30.28,SSW,207,2.0,7.0,61,0.01,,,0.02,weatherlink.com 1.10,2013-01-03 20:46:00,
2013-01-03 16:01:00,36.7,25.0,30.29,SSW,198,4.0,9.0,62,0.01,,,0.02,weatherlink.com 1.10,2013-01-03 21:01:00,
2013-01-03 16:16:00,37.1,25.0,30.29,NNE,33,1.0,4.0,62,0.01,,,0.02,weatherlink.com 1.10,2013-01-03 21:16:00,
2013-01-03 16:31:00,37.1,25.0,30.29,ESE,105,0.0,6.0,61,0.00,,,0.02,weatherlink.com 1.10,2013-01-03 21:31:00,
2013-01-03 16:46:00,35.8,23.0,30.29,ENE,72,0.0,5.0,61,0.00,,,0.02,weatherlink.com 1.10,2013-01-03 21:46:00,
2013-01-03 17:01:00,35.0,23.0,30.30,South,190,0.0,2.0,63,0.01,,,0.03,weatherlink.com 1.10,2013-01-03 22:01:00,
2013-01-03 17:16:00,34.2,23.0,30.30,NNE,31,0.0,2.0,63,0.01,,,0.03,weatherlink.com 1.10,2013-01-03 22:16:00,
2013-01-03 17:31:00,33.5,23.0,30.30,NNE,31,1.0,1.0,65,0.01,,,0.03,weatherlink.com 1.10,2013-01-03 22:31:00,
2013-01-03 17:46:00,32.9,23.0,30.31,South,186,0.0,0.0,66,0.01,,,0.03,weatherlink.com 1.10,2013-01-03 22:46:00,
2013-01-03 18:01:00,32.7,22.0,30.31,SSW,196,1.0,2.0,66,0.00,,,0.03,weatherlink.com 1.10,2013-01-03 23:01:00,
2013-01-03 18:16:00,32.9,23.0,30.31,SSW,196,0.0,1.0,66,0.00,,,0.03,weatherlink.com 1.10,2013-01-03 23:16:00,
2013-01-03 18:31:00,33.0,22.0,30.32,SSE,153,1.0,3.0,65,0.00,,,0.03,weatherlink.com 1.10,2013-01-03 23:31:00,
2013-01-03 18:46:00,33.3,22.0,30.32,SSW,193,1.0,2.0,64,0.00,,,0.03,weatherlink.com 1.10,2013-01-03 23:46:00,
2013-01-03 19:01:00,33.4,22.0,30.32,SSW,207,0.0,2.0,64,0.00,,,0.03,weatherlink.com 1.10,2013-01-04 00:01:00,
2013-01-03 19:16:00,33.5,22.0,30.32,SSW,200,1.0,3.0,64,0.00,,,0.03,weatherlink.com 1.10,2013-01-04 00:16:00,
2013-01-03 19:31:00,33.5,23.0,30.32,SSW,209,1.0,5.0,65,0.00,,,0.03,weatherlink.com 1.10,2013-01-04 00:31:00,
2013-01-03 19:46:00,33.4,23.0,30.32,SSW,211,2.0,3.0,66,0.00,,,0.03,weatherlink.com 1.10,2013-01-04 00:46:00,
2013-01-03 20:01:00,33.4,23.0,30.33,South,188,2.0,4.0,66,0.00,,,0.03,weatherlink.com 1.10,2013-01-04 01:01:00,
2013-01-03 20:16:00,33.4,23.0,30.32,SSW,205,2.0,7.0,66,0.00,,,0.03,weatherlink.com 1.10,2013-01-04 01:16:00,
2013-01-03 20:31:00,33.4,24.0,30.32,WSW,246,0.0,7.0,68,0.00,,,0.03,weatherlink.com 1.10,2013-01-04 01:31:00,
2013-01-03 20:46:00,33.3,24.0,30.33,South,175,1.0,6.0,68,0.00,,,0.03,weatherlink.com 1.10,2013-01-04 01:46:00,
2013-01-03 21:01:00,33.2,24.0,30.33,WSW,241,1.0,7.0,70,0.00,,,0.03,weatherlink.com 1.10,2013-01-04 02:01:00,
2013-01-03 21:16:00,33.1,25.0,30.33,SSW,204,0.0,2.0,71,0.00,,,0.03,weatherlink.com 1.10,2013-01-04 02:16:00,
2013-01-03 21:31:00,32.9,24.0,30.33,SSE,163,1.0,3.0,71,0.00,,,0.03,weatherlink.com 1.10,2013-01-04 02:31:00,
2013-01-03 21:46:00,32.7,25.0,30.34,ESE,121,1.0,3.0,72,0.00,,,0.03,weatherlink.com 1.10,2013-01-04 02:46:00,
2013-01-03 22:01:00,32.8,25.0,30.34,NNE,29,3.0,5.0,73,0.00,,,0.03,weatherlink.com 1.10,2013-01-04 03:01:00,
2013-01-03 22:16:00,32.7,25.0,30.34,NE,34,3.0,5.0,72,0.00,,,0.03,weatherlink.com 1.10,2013-01-04 03:16:00,
2013-01-03 22:31:00,32.5,25.0,30.35,SSW,199,1.0,4.0,73,0.00,,,0.03,weatherlink.com 1.10,2013-01-04 03:31:00,
2013-01-03 22:46:00,32.3,25.0,30.34,NE,34,2.0,6.0,73,0.00,,,0.03,weatherlink.com 1.10,2013-01-04 03:46:00,
2013-01-03 23:01:00,32.1,24.0,30.35,NNE,19,0.0,5.0,73,0.00,,,0.03,weatherlink.com 1.10,2013-01-04 04:01:00,
2013-01-03 23:16:00,32.0,25.0,30.35,NNW,340,2.0,3.0,74,0.00,,,0.03,weatherlink.com 1.10,2013-01-04 04:16:00,
2013-01-03 23:31:00,31.8,25.0,30.36,NNE,13,1.0,3.0,75,0.00,,,0.03,weatherlink.com 1.10,2013-01-04 04:31:00,
2013-01-03 23:46:00,31.8,24.0,30.35,North,5,0.0,5.0,74,0.00,,,0.03,weatherlink.com 1.10,2013-01-04 04:46:00,